sensor_id;sensor_type;location;lat;lon;timestamp;P1;durP1;ratioP1;P2;durP2;ratioP2
60831;SDS011;46665;51.558;-0.448;2022-10-03T08:48:47;2.80;;;2.05;;
60831;SDS011;46665;51.558;-0.448;2022-10-03T08:51:54;3.38;;;2.00;;
60831;SDS011;46665;51.558;-0.448;2022-10-03T09:07:16;3.50;;;2.13;;
60831;SDS011;46665;51.558;-0.448;2022-10-03T09:16:59;2.22;;;2.03;;
60831;SDS011;46665;51.558;-0.448;2022-10-03T09:22:56;7.05;;;2.50;;
60831;SDS011;46665;51.558;-0.448;2022-10-03T09:25:48;3.00;;;2.20;;
60831;SDS011;46665;51.558;-0.448;2022-10-03T09:38:32;11.80;;;3.80;;
60831;SDS011;46665;51.558;-0.448;2022-10-03T09:48:07;3.95;;;2.60;;
60831;SDS011;46665;51.558;-0.448;2022-10-03T10:00:22;2.40;;;1.98;;
60831;SDS011;46665;51.558;-0.448;2022-10-03T10:09:43;8.68;;;2.47;;
60831;SDS011;46665;51.558;-0.448;2022-10-03T10:12:44;7.72;;;2.75;;
60831;SDS011;46665;51.558;-0.448;2022-10-03T10:22:00;5.40;;;2.30;;
60831;SDS011;46665;51.558;-0.448;2022-10-03T10:50:51;2.55;;;1.17;;
60831;SDS011;46665;51.558;-0.448;2022-10-03T10:54:09;7.80;;;1.95;;
60831;SDS011;46665;51.558;-0.448;2022-10-03T11:37:50;0.90;;;0.50;;
60831;SDS011;46665;51.558;-0.448;2022-10-03T11:46:56;2.88;;;0.82;;
60831;SDS011;46665;51.558;-0.448;2022-10-03T11:53:36;5.90;;;0.90;;
60831;SDS011;46665;51.558;-0.448;2022-10-03T12:08:26;1.73;;;0.93;;
60831;SDS011;46665;51.558;-0.448;2022-10-03T12:11:48;1.77;;;0.73;;
60831;SDS011;46665;51.558;-0.448;2022-10-03T12:14:41;2.90;;;0.47;;
60831;SDS011;46665;51.558;-0.448;2022-10-03T12:17:32;0.25;;;0.25;;
60831;SDS011;46665;51.558;-0.448;2022-10-03T12:25:57;0.70;;;0.55;;
60831;SDS011;46665;51.558;-0.448;2022-10-03T12:28:48;5.25;;;0.60;;
60831;SDS011;46665;51.558;-0.448;2022-10-03T12:35:01;5.65;;;0.85;;
60831;SDS011;46665;51.558;-0.448;2022-10-03T12:47:26;10.75;;;0.77;;
60831;SDS011;46665;51.558;-0.448;2022-10-03T12:53:22;3.22;;;0.70;;
60831;SDS011;46665;51.558;-0.448;2022-10-03T12:59:22;2.45;;;0.40;;
60831;SDS011;46665;51.558;-0.448;2022-10-03T13:10:55;4.70;;;0.50;;
60831;SDS011;46665;51.558;-0.448;2022-10-03T13:20:10;1.90;;;0.25;;
60831;SDS011;46665;51.558;-0.448;2022-10-03T13:26:24;1.13;;;0.70;;
60831;SDS011;46665;51.558;-0.448;2022-10-03T13:29:20;1.15;;;0.57;;
60831;SDS011;46665;51.558;-0.448;2022-10-03T13:32:30;0.88;;;0.52;;
60831;SDS011;46665;51.558;-0.448;2022-10-03T13:44:44;4.20;;;0.88;;
60831;SDS011;46665;51.558;-0.448;2022-10-03T13:47:57;0.70;;;0.50;;
60831;SDS011;46665;51.558;-0.448;2022-10-03T13:51:03;0.55;;;0.25;;
60831;SDS011;46665;51.558;-0.448;2022-10-03T13:53:58;3.05;;;0.65;;
60831;SDS011;46665;51.558;-0.448;2022-10-03T13:56:52;1.85;;;0.57;;
60831;SDS011;46665;51.558;-0.448;2022-10-03T14:12:21;1.13;;;0.57;;
60831;SDS011;46665;51.558;-0.448;2022-10-03T14:18:07;0.50;;;0.47;;
60831;SDS011;46665;51.558;-0.448;2022-10-03T14:29:53;3.42;;;0.57;;
60831;SDS011;46665;51.558;-0.448;2022-10-03T14:32:56;2.83;;;1.10;;
60831;SDS011;46665;51.558;-0.448;2022-10-03T14:45:37;1.05;;;0.70;;
60831;SDS011;46665;51.558;-0.448;2022-10-03T14:48:27;1.10;;;0.45;;
60831;SDS011;46665;51.558;-0.448;2022-10-03T14:51:19;0.43;;;0.43;;
60831;SDS011;46665;51.558;-0.448;2022-10-03T14:54:15;3.03;;;0.40;;
60831;SDS011;46665;51.558;-0.448;2022-10-03T14:56:59;0.63;;;0.38;;
60831;SDS011;46665;51.558;-0.448;2022-10-03T14:59:55;1.23;;;0.65;;
60831;SDS011;46665;51.558;-0.448;2022-10-03T15:02:44;0.30;;;0.30;;
60831;SDS011;46665;51.558;-0.448;2022-10-03T15:05:33;0.85;;;0.40;;
60831;SDS011;46665;51.558;-0.448;2022-10-03T15:08:18;4.10;;;0.95;;
60831;SDS011;46665;51.558;-0.448;2022-10-03T15:11:05;0.57;;;0.47;;
60831;SDS011;46665;51.558;-0.448;2022-10-03T15:13:52;6.72;;;0.68;;
60831;SDS011;46665;51.558;-0.448;2022-10-03T15:17:03;0.50;;;0.35;;
60831;SDS011;46665;51.558;-0.448;2022-10-03T15:19:53;8.03;;;0.90;;
60831;SDS011;46665;51.558;-0.448;2022-10-03T15:22:39;2.55;;;0.52;;
60831;SDS011;46665;51.558;-0.448;2022-10-03T15:25:34;2.05;;;0.40;;
60831;SDS011;46665;51.558;-0.448;2022-10-03T15:31:10;2.42;;;0.30;;
60831;SDS011;46665;51.558;-0.448;2022-10-03T15:34:03;0.22;;;0.22;;
60831;SDS011;46665;51.558;-0.448;2022-10-03T15:36:50;0.65;;;0.20;;
60831;SDS011;46665;51.558;-0.448;2022-10-03T15:39:39;2.08;;;0.43;;
60831;SDS011;46665;51.558;-0.448;2022-10-03T15:42:29;1.25;;;0.35;;
60831;SDS011;46665;51.558;-0.448;2022-10-03T15:45:18;0.73;;;0.32;;
60831;SDS011;46665;51.558;-0.448;2022-10-03T15:48:09;0.55;;;0.30;;
60831;SDS011;46665;51.558;-0.448;2022-10-03T15:50:58;1.90;;;0.40;;
60831;SDS011;46665;51.558;-0.448;2022-10-03T15:53:46;1.75;;;0.40;;
60831;SDS011;46665;51.558;-0.448;2022-10-03T15:56:40;0.88;;;0.30;;
60831;SDS011;46665;51.558;-0.448;2022-10-03T15:59:28;1.33;;;0.40;;
60831;SDS011;46665;51.558;-0.448;2022-10-03T16:02:18;0.77;;;0.32;;
60831;SDS011;46665;51.558;-0.448;2022-10-03T16:05:14;1.65;;;0.40;;
60831;SDS011;46665;51.558;-0.448;2022-10-03T16:08:09;0.98;;;0.38;;
60831;SDS011;46665;51.558;-0.448;2022-10-03T16:11:07;1.55;;;0.47;;
60831;SDS011;46665;51.558;-0.448;2022-10-03T16:26:17;1.17;;;0.57;;
60831;SDS011;46665;51.558;-0.448;2022-10-03T16:29:14;0.70;;;0.50;;
60831;SDS011;46665;51.558;-0.448;2022-10-03T16:32:23;1.00;;;0.63;;
60831;SDS011;46665;51.558;-0.448;2022-10-03T16:35:29;2.03;;;0.35;;
60831;SDS011;46665;51.558;-0.448;2022-10-03T16:38:19;0.95;;;0.40;;
60831;SDS011;46665;51.558;-0.448;2022-10-03T16:41:41;2.05;;;0.40;;
60831;SDS011;46665;51.558;-0.448;2022-10-03T16:47:14;2.33;;;0.47;;
60831;SDS011;46665;51.558;-0.448;2022-10-03T16:50:02;1.50;;;0.30;;
60831;SDS011;46665;51.558;-0.448;2022-10-03T16:53:06;2.92;;;0.52;;
60831;SDS011;46665;51.558;-0.448;2022-10-03T16:55:54;1.38;;;0.80;;
60831;SDS011;46665;51.558;-0.448;2022-10-03T16:58:48;7.00;;;0.73;;
60831;SDS011;46665;51.558;-0.448;2022-10-03T17:01:37;2.55;;;0.40;;
60831;SDS011;46665;51.558;-0.448;2022-10-03T17:04:35;6.38;;;0.93;;
60831;SDS011;46665;51.558;-0.448;2022-10-03T17:07:22;1.73;;;0.43;;
60831;SDS011;46665;51.558;-0.448;2022-10-03T17:13:21;0.57;;;0.30;;
60831;SDS011;46665;51.558;-0.448;2022-10-03T17:19:18;4.43;;;0.50;;
60831;SDS011;46665;51.558;-0.448;2022-10-03T17:22:14;2.08;;;0.40;;
60831;SDS011;46665;51.558;-0.448;2022-10-03T17:28:19;0.70;;;0.57;;
60831;SDS011;46665;51.558;-0.448;2022-10-03T17:41:30;3.08;;;0.40;;
60831;SDS011;46665;51.558;-0.448;2022-10-03T17:44:17;1.10;;;0.52;;
60831;SDS011;46665;51.558;-0.448;2022-10-03T17:50:29;0.40;;;0.40;;
60831;SDS011;46665;51.558;-0.448;2022-10-03T17:53:25;6.22;;;0.30;;
60831;SDS011;46665;51.558;-0.448;2022-10-03T17:56:12;0.95;;;0.52;;
60831;SDS011;46665;51.558;-0.448;2022-10-03T17:59:02;12.45;;;0.47;;
60831;SDS011;46665;51.558;-0.448;2022-10-03T18:01:51;0.55;;;0.40;;
60831;SDS011;46665;51.558;-0.448;2022-10-03T18:04:39;0.60;;;0.40;;
60831;SDS011;46665;51.558;-0.448;2022-10-03T18:07:27;0.77;;;0.30;;
60831;SDS011;46665;51.558;-0.448;2022-10-03T18:10:20;0.43;;;0.32;;
60831;SDS011;46665;51.558;-0.448;2022-10-03T18:13:18;5.88;;;0.60;;
60831;SDS011;46665;51.558;-0.448;2022-10-03T18:16:13;0.52;;;0.47;;
60831;SDS011;46665;51.558;-0.448;2022-10-03T18:25:27;2.50;;;0.73;;
60831;SDS011;46665;51.558;-0.448;2022-10-03T18:31:23;2.08;;;0.65;;
60831;SDS011;46665;51.558;-0.448;2022-10-03T18:34:16;1.48;;;0.40;;
60831;SDS011;46665;51.558;-0.448;2022-10-03T18:37:15;2.85;;;0.88;;
60831;SDS011;46665;51.558;-0.448;2022-10-03T18:44:13;0.50;;;0.40;;
60831;SDS011;46665;51.558;-0.448;2022-10-03T18:46:40;4.88;;;0.98;;
60831;SDS011;46665;51.558;-0.448;2022-10-03T18:49:28;10.77;;;0.80;;
60831;SDS011;46665;51.558;-0.448;2022-10-03T18:52:16;0.73;;;0.30;;
60831;SDS011;46665;51.558;-0.448;2022-10-03T18:55:16;1.48;;;0.35;;
60831;SDS011;46665;51.558;-0.448;2022-10-03T18:58:23;0.68;;;0.50;;
60831;SDS011;46665;51.558;-0.448;2022-10-03T19:01:16;1.67;;;0.50;;
60831;SDS011;46665;51.558;-0.448;2022-10-03T19:04:08;8.38;;;0.90;;
60831;SDS011;46665;51.558;-0.448;2022-10-03T19:06:57;2.45;;;0.90;;
60831;SDS011;46665;51.558;-0.448;2022-10-03T19:12:59;4.63;;;0.77;;
60831;SDS011;46665;51.558;-0.448;2022-10-03T19:16:01;0.85;;;0.82;;
60831;SDS011;46665;51.558;-0.448;2022-10-03T19:21:49;1.95;;;0.80;;
60831;SDS011;46665;51.558;-0.448;2022-10-03T19:24:34;0.40;;;0.40;;
60831;SDS011;46665;51.558;-0.448;2022-10-03T19:27:21;2.03;;;0.52;;
60831;SDS011;46665;51.558;-0.448;2022-10-03T19:30:16;3.50;;;0.63;;
60831;SDS011;46665;51.558;-0.448;2022-10-03T19:35:59;1.02;;;0.60;;
60831;SDS011;46665;51.558;-0.448;2022-10-03T19:38:46;2.72;;;0.98;;
60831;SDS011;46665;51.558;-0.448;2022-10-03T19:41:32;3.22;;;0.50;;
60831;SDS011;46665;51.558;-0.448;2022-10-03T19:44:23;3.78;;;0.98;;
60831;SDS011;46665;51.558;-0.448;2022-10-03T19:53:07;8.00;;;0.95;;
60831;SDS011;46665;51.558;-0.448;2022-10-03T19:55:54;4.43;;;1.13;;
60831;SDS011;46665;51.558;-0.448;2022-10-03T19:58:38;4.80;;;0.80;;
60831;SDS011;46665;51.558;-0.448;2022-10-03T20:01:25;0.85;;;0.57;;
60831;SDS011;46665;51.558;-0.448;2022-10-03T20:04:10;8.25;;;0.93;;
60831;SDS011;46665;51.558;-0.448;2022-10-03T20:06:55;4.32;;;0.93;;
60831;SDS011;46665;51.558;-0.448;2022-10-03T20:09:53;1.57;;;0.93;;
60831;SDS011;46665;51.558;-0.448;2022-10-03T20:12:42;1.02;;;0.63;;
60831;SDS011;46665;51.558;-0.448;2022-10-03T20:15:43;0.98;;;0.70;;
60831;SDS011;46665;51.558;-0.448;2022-10-03T20:18:33;1.35;;;0.55;;
60831;SDS011;46665;51.558;-0.448;2022-10-03T20:21:19;1.50;;;0.90;;
60831;SDS011;46665;51.558;-0.448;2022-10-03T20:30:38;0.98;;;0.50;;
60831;SDS011;46665;51.558;-0.448;2022-10-03T20:33:29;0.90;;;0.60;;
60831;SDS011;46665;51.558;-0.448;2022-10-03T20:39:25;3.97;;;0.82;;
60831;SDS011;46665;51.558;-0.448;2022-10-03T20:42:18;8.27;;;0.95;;
60831;SDS011;46665;51.558;-0.448;2022-10-03T20:45:21;5.10;;;1.50;;
60831;SDS011;46665;51.558;-0.448;2022-10-03T20:48:10;1.20;;;1.10;;
60831;SDS011;46665;51.558;-0.448;2022-10-03T20:51:21;0.93;;;0.60;;
60831;SDS011;46665;51.558;-0.448;2022-10-03T20:54:19;0.93;;;0.70;;
60831;SDS011;46665;51.558;-0.448;2022-10-03T20:57:16;1.23;;;0.88;;
60831;SDS011;46665;51.558;-0.448;2022-10-03T21:00:05;3.50;;;0.75;;
60831;SDS011;46665;51.558;-0.448;2022-10-03T21:03:03;2.13;;;0.80;;
60831;SDS011;46665;51.558;-0.448;2022-10-03T21:05:54;3.30;;;1.70;;
60831;SDS011;46665;51.558;-0.448;2022-10-03T21:08:40;4.63;;;1.58;;
60831;SDS011;46665;51.558;-0.448;2022-10-03T21:11:25;7.80;;;1.13;;
60831;SDS011;46665;51.558;-0.448;2022-10-03T21:14:23;2.22;;;0.90;;
60831;SDS011;46665;51.558;-0.448;2022-10-03T21:17:13;1.10;;;0.63;;
60831;SDS011;46665;51.558;-0.448;2022-10-03T21:20:04;1.38;;;1.00;;
60831;SDS011;46665;51.558;-0.448;2022-10-03T21:22:55;5.38;;;0.70;;
60831;SDS011;46665;51.558;-0.448;2022-10-03T21:25:45;1.05;;;0.75;;
60831;SDS011;46665;51.558;-0.448;2022-10-03T21:28:34;7.40;;;2.22;;
60831;SDS011;46665;51.558;-0.448;2022-10-03T21:34:07;1.30;;;1.20;;
60831;SDS011;46665;51.558;-0.448;2022-10-03T21:37:05;9.05;;;1.27;;
60831;SDS011;46665;51.558;-0.448;2022-10-03T21:49:31;3.75;;;1.63;;
60831;SDS011;46665;51.558;-0.448;2022-10-03T21:52:30;6.07;;;2.05;;
60831;SDS011;46665;51.558;-0.448;2022-10-03T21:55:26;2.60;;;1.58;;
60831;SDS011;46665;51.558;-0.448;2022-10-03T22:01:33;2.83;;;1.40;;
60831;SDS011;46665;51.558;-0.448;2022-10-03T22:04:29;9.57;;;2.70;;
60831;SDS011;46665;51.558;-0.448;2022-10-03T22:07:32;8.02;;;1.65;;
60831;SDS011;46665;51.558;-0.448;2022-10-03T22:10:31;3.10;;;1.73;;
60831;SDS011;46665;51.558;-0.448;2022-10-03T22:13:19;6.82;;;1.75;;
60831;SDS011;46665;51.558;-0.448;2022-10-03T22:16:12;2.67;;;2.15;;
60831;SDS011;46665;51.558;-0.448;2022-10-03T22:19:12;7.00;;;1.60;;
60831;SDS011;46665;51.558;-0.448;2022-10-03T22:25:08;2.30;;;2.10;;
60831;SDS011;46665;51.558;-0.448;2022-10-03T22:28:07;2.97;;;1.75;;
60831;SDS011;46665;51.558;-0.448;2022-10-03T22:31:08;2.83;;;2.28;;
60831;SDS011;46665;51.558;-0.448;2022-10-03T22:37:15;4.78;;;1.98;;
60831;SDS011;46665;51.558;-0.448;2022-10-03T22:39:59;5.28;;;2.47;;
60831;SDS011;46665;51.558;-0.448;2022-10-03T22:42:45;4.60;;;2.38;;
60831;SDS011;46665;51.558;-0.448;2022-10-03T22:45:35;2.03;;;1.70;;
60831;SDS011;46665;51.558;-0.448;2022-10-03T22:48:33;1.67;;;1.40;;
60831;SDS011;46665;51.558;-0.448;2022-10-03T22:51:21;2.05;;;1.65;;
60831;SDS011;46665;51.558;-0.448;2022-10-03T22:54:08;2.17;;;1.50;;
60831;SDS011;46665;51.558;-0.448;2022-10-03T22:57:16;3.65;;;1.80;;
60831;SDS011;46665;51.558;-0.448;2022-10-03T23:00:03;5.88;;;1.45;;
60831;SDS011;46665;51.558;-0.448;2022-10-03T23:11:49;2.25;;;1.40;;
60831;SDS011;46665;51.558;-0.448;2022-10-03T23:14:38;5.63;;;2.30;;
60831;SDS011;46665;51.558;-0.448;2022-10-03T23:23:52;5.30;;;1.80;;
60831;SDS011;46665;51.558;-0.448;2022-10-03T23:29:45;1.65;;;1.55;;
60831;SDS011;46665;51.558;-0.448;2022-10-03T23:33:13;2.42;;;1.85;;
60831;SDS011;46665;51.558;-0.448;2022-10-03T23:36:12;2.35;;;1.92;;
60831;SDS011;46665;51.558;-0.448;2022-10-03T23:38:59;4.93;;;1.83;;
60831;SDS011;46665;51.558;-0.448;2022-10-03T23:41:44;2.33;;;2.13;;
60831;SDS011;46665;51.558;-0.448;2022-10-03T23:44:53;2.88;;;1.60;;
60831;SDS011;46665;51.558;-0.448;2022-10-03T23:47:41;5.53;;;1.90;;
60831;SDS011;46665;51.558;-0.448;2022-10-03T23:53:31;3.42;;;2.08;;
